Time;durP1;ratioP1;P1;durP2;ratioP2;P2;SDS_P1;SDS_P2;PMS_P1;PMS_P2;Temp;Humidity;BMP_temperature;BMP_pressure;BME280_temperature;BME280_humidity;BME280_pressure;Samples;Min_cycle;Max_cycle;Signal;HPM_P1;HPM_P2
2021/05/02 00:01:49;;;;;;;4.78;2.28;;;;;;;22.26;51.04;97826.16;5038284;28;20609;-59
2021/05/02 00:04:15;;;;;;;5.38;2.17;;;;;;;22.26;51.51;97824.31;5032955;28;20207;-60
2021/05/02 00:06:41;;;;;;;4.70;1.85;;;;;;;22.27;51.30;97830.50;5042950;28;20310;-58
2021/05/02 00:09:09;;;;;;;3.22;2.00;;;;;;;22.27;51.22;97833.16;5037057;28;20591;-59
2021/05/02 00:11:35;;;;;;;3.33;2.00;;;;;;;22.26;50.66;97842.13;5046160;28;20214;-59
2021/05/02 00:14:02;;;;;;;3.35;2.10;;;;;;;22.25;50.79;97836.00;5038824;28;20309;-57
2021/05/02 00:16:28;;;;;;;3.50;2.08;;;;;;;22.26;51.27;97842.13;5036619;28;20269;-60
2021/05/02 00:18:55;;;;;;;5.47;2.20;;;;;;;22.26;51.37;97842.13;5039408;28;20203;-58
2021/05/02 00:21:24;;;;;;;5.30;2.22;;;;;;;22.25;51.14;97843.13;5036471;28;20214;-57
2021/05/02 00:23:50;;;;;;;3.63;2.17;;;;;;;22.22;51.56;97848.81;5038880;28;20252;-60
2021/05/02 00:26:17;;;;;;;3.75;1.80;;;;;;;22.24;51.12;97847.63;5038514;28;20313;-58
2021/05/02 00:28:45;;;;;;;3.72;2.00;;;;;;;22.25;51.00;97851.97;5037596;28;20235;-59
2021/05/02 00:31:13;;;;;;;2.25;1.90;;;;;;;22.24;51.93;97857.47;5034707;28;20207;-59
2021/05/02 00:33:41;;;;;;;4.28;2.20;;;;;;;22.22;52.07;97854.97;5045270;28;20202;-60
2021/05/02 00:36:07;;;;;;;3.65;1.92;;;;;;;22.22;51.71;97856.81;5043824;28;20687;-57
2021/05/02 00:38:35;;;;;;;4.05;1.95;;;;;;;22.23;51.20;97853.94;5045481;28;20214;-58
2021/05/02 00:41:05;;;;;;;4.07;1.88;;;;;;;22.22;51.19;97854.97;5039936;28;20199;-58
2021/05/02 00:43:36;;;;;;;2.42;1.70;;;;;;;22.22;51.75;97857.63;5037628;28;20212;-60
2021/05/02 00:46:11;;;;;;;6.28;1.90;;;;;;;22.23;52.07;97856.59;5041363;28;20236;-57
2021/05/02 00:48:46;;;;;;;2.60;1.90;;;;;;;22.25;51.14;97864.41;5039550;28;20211;-58
2021/05/02 00:51:16;;;;;;;2.53;1.70;;;;;;;22.23;50.86;97871.75;5040895;28;20229;-59
2021/05/02 00:54:12;;;;;;;3.45;1.80;;;;;;;22.24;52.07;97865.44;5043406;28;20683;-60
2021/05/02 00:56:46;;;;;;;3.05;1.77;;;;;;;22.25;51.80;97875.06;5029852;28;20272;-60
2021/05/02 00:59:22;;;;;;;2.22;1.63;;;;;;;22.23;51.25;97875.25;5034563;28;20203;-60
2021/05/02 01:01:50;;;;;;;2.50;1.77;;;;;;;22.22;51.02;97870.13;5034625;28;20360;-63
2021/05/02 01:04:24;;;;;;;3.25;1.77;;;;;;;22.24;51.40;97876.09;5038218;28;20242;-60
2021/05/02 01:06:53;;;;;;;2.33;1.60;;;;;;;22.23;51.69;97879.75;5038303;28;20232;-59
2021/05/02 01:09:21;;;;;;;2.33;1.65;;;;;;;22.21;51.91;97879.91;5037512;28;20234;-58
2021/05/02 01:11:48;;;;;;;4.30;1.70;;;;;;;22.21;52.25;97879.91;5035819;28;20200;-59
2021/05/02 01:14:22;;;;;;;3.40;1.67;;;;;;;22.21;51.24;97885.25;5038323;28;20290;-60
2021/05/02 01:16:50;;;;;;;3.53;1.83;;;;;;;22.22;51.44;97891.41;5043917;28;20219;-57
2021/05/02 01:19:17;;;;;;;2.25;1.70;;;;;;;22.20;51.57;97890.75;5042472;28;20225;-60
2021/05/02 01:21:45;;;;;;;2.78;1.83;;;;;;;22.22;51.94;97902.88;5035031;28;20203;-59
2021/05/02 01:24:12;;;;;;;3.15;1.85;;;;;;;22.20;51.33;97904.91;5038874;28;20773;-59
2021/05/02 01:26:41;;;;;;;4.55;1.65;;;;;;;22.21;51.18;97897.75;5042835;28;20227;-60
2021/05/02 01:29:07;;;;;;;2.72;1.80;;;;;;;22.19;51.79;97908.56;5031028;28;20228;-60
2021/05/02 01:31:33;;;;;;;4.00;1.92;;;;;;;22.19;51.42;97905.91;5034723;28;20203;-57
2021/05/02 01:34:00;;;;;;;4.63;1.60;;;;;;;22.19;51.41;97908.56;5041335;28;20208;-58
2021/05/02 01:36:26;;;;;;;3.75;2.00;;;;;;;22.18;52.26;97902.41;5041727;28;20242;-59
2021/05/02 01:38:54;;;;;;;3.58;1.83;;;;;;;22.18;51.54;97907.72;5036410;28;20205;-61
2021/05/02 01:41:22;;;;;;;5.38;1.42;;;;;;;22.17;51.80;97916.72;5035853;28;20584;-58
2021/05/02 01:43:48;;;;;;;2.90;1.70;;;;;;;22.17;52.12;97916.72;5044080;28;20204;-58
2021/05/02 01:46:18;;;;;;;4.15;1.52;;;;;;;22.17;51.96;97915.88;5034229;28;20227;-57
2021/05/02 01:48:45;;;;;;;5.85;1.60;;;;;;;22.17;51.42;97918.56;5036987;28;20211;-57
2021/05/02 01:51:13;;;;;;;2.13;1.60;;;;;;;22.17;51.67;97923.88;5033629;28;20222;-59
2021/05/02 01:53:39;;;;;;;2.30;1.60;;;;;;;22.16;52.35;97927.53;5039647;28;20303;-58
2021/05/02 01:56:06;;;;;;;3.28;1.80;;;;;;;22.17;52.10;97930.03;5042471;28;20660;-57
2021/05/02 01:58:35;;;;;;;5.00;1.52;;;;;;;22.17;51.54;97930.03;5045506;28;20263;-59
2021/05/02 02:01:04;;;;;;;3.42;1.35;;;;;;;22.17;51.48;97932.69;5046864;28;20207;-60
2021/05/02 02:03:30;;;;;;;1.63;1.30;;;;;;;22.17;51.63;97935.34;5033258;28;20200;-56
2021/05/02 02:05:58;;;;;;;2.30;1.80;;;;;;;22.16;52.00;97936.34;5035527;28;20308;-58
2021/05/02 02:08:25;;;;;;;2.55;1.60;;;;;;;22.16;51.80;97939.00;5039355;28;20684;-59
2021/05/02 02:10:52;;;;;;;4.80;1.67;;;;;;;22.16;52.46;97941.66;5047735;28;20234;-59
2021/05/02 02:13:19;;;;;;;2.30;1.50;;;;;;;22.15;52.32;97948.00;5042725;28;20199;-57
2021/05/02 02:15:47;;;;;;;2.55;1.50;;;;;;;22.15;52.19;97948.00;5037022;28;20215;-61
2021/05/02 02:18:15;;;;;;;2.47;1.38;;;;;;;22.15;52.13;97956.00;5043617;28;20629;-59
2021/05/02 02:20:43;;;;;;;4.32;1.38;;;;;;;22.15;51.92;97955.16;5042671;28;20759;-62
2021/05/02 02:23:16;;;;;;;2.38;1.70;;;;;;;22.14;51.62;97951.66;5036113;28;20215;-56
2021/05/02 02:25:44;;;;;;;2.90;1.45;;;;;;;22.15;51.74;97961.31;5036987;28;20302;-59
2021/05/02 02:28:13;;;;;;;2.88;1.75;;;;;;;22.14;51.77;97958.81;5040656;28;20229;-60
2021/05/02 02:30:42;;;;;;;2.25;1.40;;;;;;;22.13;52.21;97963.31;5044181;28;20314;-60
2021/05/02 02:33:09;;;;;;;5.22;1.92;;;;;;;22.14;51.80;97966.81;5037933;28;20272;-60
2021/05/02 02:35:40;;;;;;;2.47;1.58;;;;;;;22.14;51.40;97969.47;5040939;28;20227;-56
2021/05/02 02:38:09;;;;;;;2.15;1.40;;;;;;;22.13;51.89;97971.31;5048762;28;20277;-57
2021/05/02 02:40:37;;;;;;;2.75;1.50;;;;;;;22.14;52.38;97977.47;5047915;28;20223;-59
2021/05/02 02:43:05;;;;;;;2.30;1.48;;;;;;;22.13;52.11;97973.97;5048869;28;20265;-59
2021/05/02 02:45:34;;;;;;;1.52;1.25;;;;;;;22.14;51.88;97980.13;5035229;28;20227;-54
2021/05/02 02:48:03;;;;;;;3.08;1.48;;;;;;;22.14;52.02;97986.25;5044035;28;20225;-59
2021/05/02 02:50:31;;;;;;;2.83;1.40;;;;;;;22.14;51.37;97993.44;5031437;28;20308;-60
2021/05/02 02:53:05;;;;;;;1.38;1.25;;;;;;;22.13;52.36;97995.28;5048518;28;20210;-59
2021/05/02 02:55:36;;;;;;;2.30;1.20;;;;;;;22.12;52.36;97998.91;5039071;28;20216;-60
2021/05/02 02:58:04;;;;;;;1.60;1.30;;;;;;;22.12;51.67;97998.09;5036983;28;20305;-58
2021/05/02 03:00:32;;;;;;;2.50;1.30;;;;;;;22.11;52.03;97997.25;5037300;28;20725;-59
2021/05/02 03:03:04;;;;;;;2.08;1.48;;;;;;;22.12;51.32;98006.09;5043669;28;20203;-54
2021/05/02 03:05:33;;;;;;;3.65;1.55;;;;;;;22.11;51.37;98005.22;5046651;28;20225;-57
2021/05/02 03:08:01;;;;;;;3.05;1.50;;;;;;;22.11;52.12;98002.56;5038931;28;20222;-58
2021/05/02 03:10:28;;;;;;;2.13;1.23;;;;;;;22.10;51.37;98006.25;5046591;28;20227;-59
2021/05/02 03:12:55;;;;;;;2.55;1.40;;;;;;;22.10;52.01;98011.56;5045493;28;20210;-59
2021/05/02 03:15:22;;;;;;;2.53;1.25;;;;;;;22.10;51.77;98008.91;5043282;28;20235;-57
2021/05/02 03:17:59;;;;;;;1.77;1.25;;;;;;;22.10;51.90;98008.91;5046430;28;20256;-59
2021/05/02 03:20:29;;;;;;;1.98;1.35;;;;;;;22.08;51.59;98010.91;5036281;28;20222;-57
2021/05/02 03:22:58;;;;;;;1.85;1.23;;;;;;;22.09;52.37;98017.88;5031573;28;20239;-59
2021/05/02 03:25:26;;;;;;;1.85;1.48;;;;;;;22.09;52.11;98025.06;5039087;28;20289;-56
2021/05/02 03:27:57;;;;;;;1.42;1.30;;;;;;;22.09;51.53;98023.22;5043130;28;20741;-57
2021/05/02 03:30:25;;;;;;;4.65;1.33;;;;;;;22.08;51.64;98024.22;5034913;28;20227;-60
2021/05/02 03:32:54;;;;;;;1.48;1.00;;;;;;;22.08;52.03;98026.03;5048186;28;20213;-60
2021/05/02 03:35:24;;;;;;;2.20;1.10;;;;;;;22.08;52.47;98029.56;5035481;28;20786;-60
2021/05/02 03:37:54;;;;;;;1.38;1.27;;;;;;;22.07;51.54;98032.38;5046216;28;20207;-59
2021/05/02 03:40:23;;;;;;;2.28;1.40;;;;;;;22.06;51.45;98036.84;5029733;28;20203;-60
2021/05/02 03:42:50;;;;;;;2.00;1.08;;;;;;;22.07;52.45;98043.84;5036864;28;20204;-59
2021/05/02 03:45:16;;;;;;;2.42;1.60;;;;;;;22.06;52.17;98042.16;5043312;28;20223;-59
2021/05/02 03:47:42;;;;;;;2.83;1.38;;;;;;;22.07;51.55;98048.34;5040755;28;20203;-60
2021/05/02 03:50:09;;;;;;;1.48;1.20;;;;;;;22.07;51.32;98049.16;5045333;28;20227;-60
2021/05/02 03:52:35;;;;;;;1.58;1.13;;;;;;;22.06;52.05;98046.69;5046992;28;20210;-58
2021/05/02 03:55:01;;;;;;;1.30;1.08;;;;;;;22.06;51.56;98041.34;5039640;28;20223;-59
2021/05/02 03:57:28;;;;;;;1.90;1.10;;;;;;;22.06;52.34;98050.16;5046646;28;20245;-59
2021/05/02 03:59:54;;;;;;;1.60;1.17;;;;;;;22.05;51.47;98051.19;5039195;28;20215;-58
2021/05/02 04:02:20;;;;;;;1.55;1.17;;;;;;;22.06;51.54;98046.69;5035093;28;20202;-59
2021/05/02 04:04:46;;;;;;;3.47;1.30;;;;;;;22.05;52.26;98052.97;5045645;28;20264;-59
2021/05/02 04:07:14;;;;;;;2.45;1.10;;;;;;;22.05;51.42;98060.97;5041252;28;20662;-57
2021/05/02 04:09:42;;;;;;;1.60;1.17;;;;;;;22.05;51.97;98064.50;5036368;28;20227;-59
2021/05/02 04:12:09;;;;;;;1.65;1.27;;;;;;;22.05;51.51;98060.97;5030133;28;20291;-58
2021/05/02 04:14:36;;;;;;;1.67;1.15;;;;;;;22.05;52.28;98064.50;5038028;28;20453;-58
2021/05/02 04:17:04;;;;;;;3.08;1.30;;;;;;;22.04;51.71;98059.31;5034581;28;20527;-59
2021/05/02 04:19:32;;;;;;;1.48;1.25;;;;;;;22.03;51.68;98063.81;5042644;28;20191;-60
2021/05/02 04:21:58;;;;;;;2.15;1.10;;;;;;;22.03;51.96;98063.81;5029571;28;20219;-59
2021/05/02 04:24:24;;;;;;;2.65;1.30;;;;;;;22.04;51.21;98069.97;5036154;28;20203;-59
2021/05/02 04:26:52;;;;;;;1.63;1.25;;;;;;;22.04;51.50;98080.63;5044706;28;20703;-60
2021/05/02 04:29:18;;;;;;;2.63;1.10;;;;;;;22.03;51.84;98079.78;5043027;28;20262;-59
2021/05/02 04:31:45;;;;;;;4.07;1.30;;;;;;;22.03;51.71;98090.41;5034956;28;20212;-59
2021/05/02 04:34:11;;;;;;;3.10;1.08;;;;;;;22.02;51.58;98078.13;5035702;28;20217;-61
2021/05/02 04:36:37;;;;;;;2.25;1.30;;;;;;;22.02;52.22;98091.44;5039013;28;20238;-57
2021/05/02 04:39:04;;;;;;;2.28;1.17;;;;;;;22.02;52.33;98099.41;5041074;28;20207;-59
2021/05/02 04:41:31;;;;;;;1.70;1.10;;;;;;;22.01;52.23;98105.72;5046437;28;20216;-58
2021/05/02 04:43:58;;;;;;;1.23;1.10;;;;;;;22.03;52.04;98114.38;5043949;28;20199;-58
2021/05/02 04:46:24;;;;;;;4.20;1.45;;;;;;;21.97;51.90;98112.38;5041387;28;20223;-60
2021/05/02 04:48:51;;;;;;;5.43;1.27;;;;;;;21.96;51.95;98122.19;5044065;28;20218;-59
2021/05/02 04:51:19;;;;;;;3.33;1.30;;;;;;;21.98;52.17;98122.03;5041915;28;20222;-60
2021/05/02 04:53:45;;;;;;;2.40;1.20;;;;;;;21.99;52.29;98131.69;5046923;28;20208;-60
2021/05/02 04:56:11;;;;;;;2.75;1.13;;;;;;;22.02;51.55;98135.84;5036299;28;20231;-57
2021/05/02 04:58:38;;;;;;;5.53;1.50;;;;;;;22.02;51.26;98139.34;5034609;28;20357;-58
2021/05/02 05:01:04;;;;;;;1.70;1.02;;;;;;;21.99;51.91;98137.84;5037766;28;20213;-56
2021/05/02 05:03:31;;;;;;;2.10;1.40;;;;;;;21.97;51.75;98145.16;5039081;28;20226;-62
2021/05/02 05:05:58;;;;;;;1.77;1.40;;;;;;;21.96;51.28;98145.31;5039276;28;20319;-59
2021/05/02 05:08:24;;;;;;;1.95;1.10;;;;;;;21.96;51.64;98142.66;5036123;28;20234;-55
2021/05/02 05:10:51;;;;;;;4.50;1.30;;;;;;;21.98;51.68;98148.63;5038617;28;20220;-60
2021/05/02 05:13:17;;;;;;;2.70;1.20;;;;;;;22.00;51.65;98146.66;5039494;28;20196;-60
2021/05/02 05:15:43;;;;;;;2.67;1.25;;;;;;;21.97;51.75;98144.34;5038143;28;20851;-60
2021/05/02 05:18:09;;;;;;;2.22;1.05;;;;;;;21.98;50.83;98148.63;5038558;28;20310;-58
2021/05/02 05:20:35;;;;;;;1.70;1.00;;;;;;;21.99;50.75;98152.97;5033328;28;20208;-59
2021/05/02 05:23:02;;;;;;;1.83;1.10;;;;;;;21.99;51.83;98150.31;5041702;28;20217;-59
2021/05/02 05:25:28;;;;;;;2.33;1.40;;;;;;;21.98;51.48;98156.63;5041587;28;20295;-58
2021/05/02 05:27:54;;;;;;;1.83;1.20;;;;;;;21.97;51.72;98166.44;5039841;28;20207;-58
2021/05/02 05:30:20;;;;;;;2.20;1.30;;;;;;;21.99;51.58;98168.94;5031833;28;20224;-60
2021/05/02 05:32:47;;;;;;;1.90;1.10;;;;;;;21.99;51.36;98171.59;5035491;28;20196;-58
2021/05/02 05:35:13;;;;;;;2.33;1.00;;;;;;;21.97;50.98;98176.28;5034570;28;20291;-60
2021/05/02 05:37:39;;;;;;;1.80;1.10;;;;;;;21.96;51.36;98178.06;5038912;28;20200;-60
2021/05/02 05:40:07;;;;;;;2.78;1.15;;;;;;;22.00;51.63;98178.59;5036884;28;20330;-58
2021/05/02 05:42:34;;;;;;;1.63;1.17;;;;;;;22.01;51.13;98172.28;5036818;28;20203;-58
2021/05/02 05:45:01;;;;;;;2.55;1.10;;;;;;;22.05;50.66;98165.63;5041347;28;20204;-53
2021/05/02 05:47:27;;;;;;;1.55;1.35;;;;;;;22.08;50.11;98169.78;5034375;28;20200;-59
2021/05/02 05:49:53;;;;;;;1.60;1.10;;;;;;;22.11;50.35;98170.28;5029590;28;20224;-58
2021/05/02 05:52:20;;;;;;;2.20;1.10;;;;;;;22.11;51.17;98170.28;5036962;28;20204;-60
2021/05/02 05:54:46;;;;;;;1.50;1.15;;;;;;;22.13;51.10;98165.66;5043202;28;20702;-56
2021/05/02 05:57:13;;;;;;;1.92;1.08;;;;;;;22.15;49.90;98174.28;5041248;28;20581;-60
2021/05/02 05:59:39;;;;;;;1.10;0.90;;;;;;;22.16;50.16;98178.59;5043733;28;20210;-60
2021/05/02 06:02:06;;;;;;;1.25;0.90;;;;;;;22.16;50.88;98186.59;5037254;28;20219;-57
2021/05/02 06:04:32;;;;;;;2.15;1.08;;;;;;;22.17;50.99;98185.59;5042535;28;20211;-60
2021/05/02 06:06:58;;;;;;;1.63;0.90;;;;;;;22.20;50.78;98180.94;5041397;28;20227;-56
2021/05/02 06:09:24;;;;;;;1.58;1.00;;;;;;;22.20;49.86;98189.78;5042787;28;20227;-60
2021/05/02 06:11:52;;;;;;;1.85;1.17;;;;;;;22.20;50.35;98181.81;5043670;28;20206;-59
2021/05/02 06:14:19;;;;;;;1.73;1.02;;;;;;;22.21;50.73;98188.78;5045039;28;20928;-59
2021/05/02 06:16:45;;;;;;;1.55;0.90;;;;;;;22.22;50.72;98190.44;5038423;28;20223;-59
2021/05/02 06:19:11;;;;;;;4.80;1.50;;;;;;;22.24;50.79;98187.63;5038001;28;20208;-55
2021/05/02 06:21:37;;;;;;;1.48;0.80;;;;;;;22.23;50.94;98194.75;5043292;28;20708;-60
2021/05/02 06:24:05;;;;;;;1.35;0.90;;;;;;;22.26;50.67;98196.28;5036903;28;20203;-55
2021/05/02 06:26:31;;;;;;;1.58;0.90;;;;;;;22.27;50.77;98201.44;5039344;28;20715;-59
2021/05/02 06:28:57;;;;;;;1.45;0.90;;;;;;;22.27;50.74;98198.78;5041077;28;20294;-59
2021/05/02 06:31:24;;;;;;;3.33;1.10;;;;;;;22.28;50.95;98202.25;5043153;28;20290;-59
2021/05/02 06:33:50;;;;;;;2.72;1.10;;;;;;;22.28;50.98;98191.59;5031255;28;20279;-57
2021/05/02 06:36:16;;;;;;;3.90;1.15;;;;;;;22.28;49.93;98192.50;5041731;28;20728;-59
2021/05/02 06:38:42;;;;;;;1.98;1.00;;;;;;;22.30;50.48;98194.97;5038850;28;20536;-59
2021/05/02 06:41:08;;;;;;;1.75;0.90;;;;;;;22.30;50.87;98200.28;5035938;28;20644;-57
2021/05/02 06:43:35;;;;;;;2.78;1.30;;;;;;;22.31;50.25;98193.97;5038967;28;20200;-59
2021/05/02 06:46:01;;;;;;;1.35;1.00;;;;;;;22.31;50.47;98201.97;5041752;28;20231;-57
2021/05/02 06:48:28;;;;;;;1.92;1.00;;;;;;;22.38;50.73;98204.78;5044482;28;20341;-58
2021/05/02 06:50:54;;;;;;;6.53;1.00;;;;;;;22.42;50.86;98206.16;5028948;28;20232;-64
2021/05/02 06:53:20;;;;;;;3.38;1.20;;;;;;;22.50;49.70;98214.97;5042407;28;21265;-63
2021/05/02 06:55:46;;;;;;;1.73;1.10;;;;;;;22.59;50.21;98220.31;5051490;28;20286;-66
2021/05/02 06:58:13;;;;;;;3.10;1.00;;;;;;;22.64;49.38;98220.63;5048868;28;20509;-61
2021/05/02 07:00:39;;;;;;;3.35;1.40;;;;;;;22.66;50.06;98216.78;5049420;28;20209;-61
2021/05/02 07:03:05;;;;;;;6.50;1.08;;;;;;;22.72;50.44;98223.28;5053869;28;20727;-60
2021/05/02 07:05:33;;;;;;;1.75;0.90;;;;;;;22.75;50.00;98225.63;5052973;28;20285;-60
2021/05/02 07:07:59;;;;;;;7.95;1.27;;;;;;;22.75;49.53;98225.63;5052712;28;20215;-60
2021/05/02 07:10:25;;;;;;;2.20;1.20;;;;;;;22.77;49.72;98225.47;5046238;28;20712;-59
2021/05/02 07:12:52;;;;;;;4.57;1.13;;;;;;;22.77;49.23;98226.28;5052158;28;20225;-60
2021/05/02 07:15:18;;;;;;;2.15;0.90;;;;;;;22.79;49.22;98229.59;5051663;28;20231;-60
2021/05/02 07:17:44;;;;;;;2.50;1.17;;;;;;;22.82;49.66;98229.28;5055470;28;20196;-61
2021/05/02 07:20:13;;;;;;;1.77;1.10;;;;;;;22.83;50.08;98228.28;5048017;28;20204;-59
2021/05/02 07:22:40;;;;;;;2.33;0.95;;;;;;;22.88;49.56;98236.63;5050260;28;20198;-62
2021/05/02 07:25:07;;;;;;;1.38;0.90;;;;;;;22.89;49.81;98240.09;5047181;28;21020;-59
2021/05/02 07:27:33;;;;;;;3.08;1.10;;;;;;;22.90;49.26;98242.59;5049306;28;20232;-62
2021/05/02 07:29:59;;;;;;;2.17;0.95;;;;;;;22.92;48.87;98235.25;5053077;28;20234;-60
2021/05/02 07:32:25;;;;;;;3.97;1.15;;;;;;;22.99;49.16;98234.59;5048081;28;20606;-65
2021/05/02 07:34:51;;;;;;;9.73;1.23;;;;;;;23.04;49.36;98237.59;5049540;28;20231;-63
2021/05/02 07:37:18;;;;;;;10.85;1.20;;;;;;;23.08;49.06;98239.78;5046802;28;20704;-61
2021/05/02 07:39:45;;;;;;;2.42;0.98;;;;;;;23.08;48.87;98241.59;5051984;28;20214;-63
2021/05/02 07:42:11;;;;;;;8.20;1.45;;;;;;;23.09;49.03;98241.44;5048183;28;20294;-63
2021/05/02 07:44:37;;;;;;;1.27;0.90;;;;;;;23.11;49.51;98249.25;5043587;28;20287;-61
2021/05/02 07:47:03;;;;;;;6.22;0.80;;;;;;;23.08;49.13;98241.59;5047145;28;20218;-62
2021/05/02 07:49:29;;;;;;;6.32;1.00;;;;;;;22.81;50.21;98246.25;5051541;28;20247;-62
2021/05/02 07:51:55;;;;;;;4.97;1.40;;;;;;;22.71;50.25;98243.75;5048838;28;20207;-60
2021/05/02 07:54:21;;;;;;;6.38;1.25;;;;;;;22.68;50.58;98252.13;5048333;28;20203;-63
2021/05/02 07:56:48;;;;;;;19.55;1.90;;;;;;;22.69;51.19;98248.44;5048169;28;20273;-67
2021/05/02 07:59:15;;;;;;;4.35;1.10;;;;;;;22.66;51.37;98258.59;5051107;28;20309;-63
2021/05/02 08:01:41;;;;;;;5.18;1.20;;;;;;;22.73;51.67;98256.91;5047071;28;20294;-63
2021/05/02 08:04:07;;;;;;;11.07;1.30;;;;;;;22.69;50.33;98261.75;5045003;28;20204;-63
2021/05/02 08:06:33;;;;;;;4.72;1.08;;;;;;;22.69;50.59;98258.28;5049669;28;20338;-61
2021/05/02 08:08:59;;;;;;;8.90;1.10;;;;;;;22.69;50.51;98263.59;5053866;28;20240;-62
2021/05/02 08:11:25;;;;;;;4.40;1.23;;;;;;;22.69;50.29;98260.94;5049904;28;20229;-63
2021/05/02 08:13:52;;;;;;;3.65;1.15;;;;;;;22.68;50.36;98272.56;5042894;28;20203;-62
2021/05/02 08:16:20;;;;;;;11.13;1.27;;;;;;;22.65;50.59;98280.91;5052357;28;20840;-63
2021/05/02 08:18:46;;;;;;;8.77;1.23;;;;;;;22.61;50.06;98279.56;5048330;28;20218;-60
2021/05/02 08:21:12;;;;;;;2.88;0.82;;;;;;;22.60;49.97;98285.88;5044440;28;20200;-62
2021/05/02 08:23:38;;;;;;;5.55;1.58;;;;;;;22.54;50.02;98288.22;5048451;28;20214;-63
2021/05/02 08:26:05;;;;;;;4.10;1.17;;;;;;;22.60;50.32;98294.75;5047517;28;20318;-62
2021/05/02 08:28:31;;;;;;;6.13;1.20;;;;;;;;;;5049053;28;20250;-63
2021/05/02 08:30:58;;;;;;;6.18;1.77;;;;;;;;;;5041732;28;20648;-62
2021/05/02 08:33:24;;;;;;;20.73;2.67;;;;;;;22.65;51.64;98292.41;5040212;28;20822;-61
2021/05/02 08:35:50;;;;;;;7.93;1.38;;;;;;;22.75;52.06;98281.59;5039783;28;20310;-63
2021/05/02 08:38:17;;;;;;;19.55;1.73;;;;;;;22.82;52.64;98279.91;5040584;28;20298;-64
2021/05/02 08:40:43;;;;;;;13.85;1.95;;;;;;;22.86;54.22;98280.41;5044339;28;20204;-62
2021/05/02 08:43:11;;;;;;;12.48;2.28;;;;;;;22.87;52.93;98285.59;5049346;28;20271;-62
2021/05/02 08:45:37;;;;;;;9.55;1.70;;;;;;;22.90;52.53;98290.59;5043753;28;20306;-64
2021/05/02 08:48:05;;;;;;;4.70;1.38;;;;;;;22.90;52.25;98287.91;5051515;28;20264;-63
2021/05/02 08:50:31;;;;;;;9.02;1.50;;;;;;;22.92;52.45;98290.41;5051414;28;21002;-63
2021/05/02 08:52:58;;;;;;;6.60;1.75;;;;;;;22.92;51.94;98288.56;5047102;28;20231;-65
2021/05/02 08:55:24;;;;;;;6.28;1.70;;;;;;;22.94;51.55;98288.41;5041832;28;20469;-63
2021/05/02 08:57:50;;;;;;;9.25;1.30;;;;;;;22.94;51.75;98290.25;5049877;28;20201;-64
2021/05/02 09:00:17;;;;;;;5.13;1.58;;;;;;;22.94;51.01;98292.91;5045237;28;20199;-63
2021/05/02 09:02:53;;;;;;;6.43;1.40;;;;;;;22.95;51.92;98289.25;5048675;28;20247;-63
2021/05/02 09:05:21;;;;;;;6.40;1.23;;;;;;;22.94;51.26;98290.25;5041685;28;20223;-64
2021/05/02 09:07:47;;;;;;;5.38;1.40;;;;;;;22.94;51.45;98290.25;5050302;28;20313;-63
2021/05/02 09:10:15;;;;;;;1.48;0.90;;;;;;;22.92;51.16;98296.56;5049902;28;20990;-65
2021/05/02 09:12:43;;;;;;;5.75;1.33;;;;;;;22.92;50.84;98287.75;5041181;28;20292;-64
2021/05/02 09:15:17;;;;;;;3.80;1.20;;;;;;;22.90;51.23;98287.91;5043265;28;20230;-65
2021/05/02 09:17:51;;;;;;;3.78;1.05;;;;;;;22.88;50.22;98287.25;5050517;28;20583;-63
2021/05/02 09:20:48;;;;;;;3.92;1.23;;;;;;;22.87;50.18;98282.09;5045085;28;20667;-63
2021/05/02 09:23:15;;;;;;;8.75;1.40;;;;;;;22.85;50.72;98287.59;5043662;28;20208;-64
2021/05/02 09:25:52;;;;;;;5.10;1.45;;;;;;;22.84;50.94;98293.09;5044828;28;20253;-63
2021/05/02 09:28:39;;;;;;;2.30;1.10;;;;;;;22.84;50.40;98299.25;5039871;28;20289;-63
2021/05/02 09:31:05;;;;;;;2.67;1.10;;;;;;;22.81;49.81;98286.25;5043514;28;20223;-63
2021/05/02 09:33:31;;;;;;;6.57;1.30;;;;;;;22.82;50.72;98293.25;5040442;28;20203;-62
2021/05/02 09:35:58;;;;;;;7.78;1.52;;;;;;;22.81;49.76;98290.75;5043042;28;20231;-62
2021/05/02 09:38:25;;;;;;;14.30;1.73;;;;;;;22.72;50.13;98282.75;5047658;28;20640;-63
2021/05/02 09:40:54;;;;;;;19.05;1.83;;;;;;;22.69;49.93;98287.56;5046393;28;20223;-61
2021/05/02 09:43:41;;;;;;;15.85;2.10;;;;;;;22.65;50.15;98287.09;5046141;28;20212;-60
2021/05/02 09:46:24;;;;;;;7.60;1.58;;;;;;;22.62;49.97;98297.25;5042637;28;20223;-62
2021/05/02 09:48:51;;;;;;;6.97;1.63;;;;;;;22.60;49.53;98301.88;5044734;28;20225;-62
2021/05/02 09:51:22;;;;;;;5.43;1.40;;;;;;;22.58;50.02;98311.88;5044419;28;20878;-61
2021/05/02 09:54:02;;;;;;;14.90;2.17;;;;;;;22.60;49.25;98310.72;5038679;28;20279;-58
2021/05/02 09:56:38;;;;;;;18.48;2.60;;;;;;;22.60;49.77;98317.88;5041567;28;20253;-59
2021/05/02 09:59:05;;;;;;;11.60;2.47;;;;;;;;;;5041432;28;20229;-60
2021/05/02 10:01:32;;;;;;;5.97;1.38;;;;;;;22.61;49.22;98322.22;5028368;28;21637;-59
2021/05/02 10:04:00;;;;;;;16.73;1.92;;;;;;;22.62;50.25;98321.22;5038958;28;20204;-61
2021/05/02 10:06:35;;;;;;;9.68;1.90;;;;;;;22.59;47.51;98317.03;5034262;28;20497;-62
2021/05/02 10:09:06;;;;;;;3.03;1.70;;;;;;;22.58;47.60;98311.88;5042679;28;20275;-62
2021/05/02 10:11:33;;;;;;;6.38;1.55;;;;;;;22.57;48.79;98315.56;5041416;28;20268;-61
2021/05/02 10:14:02;;;;;;;3.35;1.30;;;;;;;22.56;48.38;98313.88;5040999;28;20775;-62
2021/05/02 10:16:30;;;;;;;7.00;1.40;;;;;;;22.58;48.72;98322.53;5038897;28;20360;-61
2021/05/02 10:18:59;;;;;;;3.22;1.30;;;;;;;22.60;48.58;98320.53;5041641;28;20199;-61
2021/05/02 10:21:25;;;;;;;4.03;1.42;;;;;;;22.62;48.04;98318.56;5040352;28;20237;-62
2021/05/02 10:23:52;;;;;;;5.10;1.40;;;;;;;22.66;48.84;98330.53;5044631;28;20299;-61
2021/05/02 10:26:19;;;;;;;4.35;1.20;;;;;;;22.63;47.87;98320.19;5048112;28;20366;-62
2021/05/02 10:28:47;;;;;;;6.55;1.70;;;;;;;22.62;48.36;98318.56;5047998;28;20207;-61
2021/05/02 10:31:15;;;;;;;2.90;1.40;;;;;;;22.62;48.74;98318.56;5044351;28;20223;-60
2021/05/02 10:33:42;;;;;;;6.78;1.70;;;;;;;22.62;47.78;98321.22;5046631;28;20211;-58
2021/05/02 10:36:09;;;;;;;2.92;1.40;;;;;;;22.63;48.01;98318.41;5046420;28;20309;-64
2021/05/02 10:38:50;;;;;;;6.20;1.50;;;;;;;22.67;47.93;98310.91;5047138;28;20285;-59
2021/05/02 10:41:29;;;;;;;5.70;1.40;;;;;;;22.64;48.67;98317.38;5052235;28;20234;-61
2021/05/02 10:43:58;;;;;;;9.65;1.63;;;;;;;22.67;47.70;98313.56;5052080;28;20195;-61
2021/05/02 10:46:46;;;;;;;8.02;1.60;;;;;;;22.71;47.88;98312.22;5050726;28;20770;-61
2021/05/02 10:49:50;;;;;;;4.65;1.20;;;;;;;22.74;47.64;98295.91;5048978;28;20204;-63
2021/05/02 10:52:32;;;;;;;2.60;1.17;;;;;;;22.75;48.65;98297.59;5057539;28;20303;-60
2021/05/02 10:55:15;;;;;;;5.10;1.08;;;;;;;22.75;47.86;98294.91;5052412;28;20194;-61
2021/05/02 10:57:42;;;;;;;2.28;1.10;;;;;;;22.76;48.28;98296.56;5052924;28;20200;-58
2021/05/02 11:00:11;;;;;;;7.07;1.25;;;;;;;22.80;48.91;98289.94;5054831;28;20227;-59
2021/05/02 11:02:40;;;;;;;4.03;1.17;;;;;;;22.85;48.15;98295.59;5050440;28;20217;-63
2021/05/02 11:05:08;;;;;;;9.73;1.10;;;;;;;22.90;48.83;98295.91;5047620;28;20314;-61
2021/05/02 11:07:37;;;;;;;7.82;1.27;;;;;;;22.92;48.39;98303.75;5049126;28;20293;-59
2021/05/02 11:10:05;;;;;;;4.78;1.00;;;;;;;22.99;48.82;98303.91;5050445;28;20233;-63
2021/05/02 11:12:32;;;;;;;3.50;0.90;;;;;;;23.04;48.24;98306.91;5053634;28;20211;-61
2021/05/02 11:15:00;;;;;;;7.80;1.35;;;;;;;22.84;46.32;98312.56;5047520;28;20203;-62
2021/05/02 11:17:31;;;;;;;5.28;1.23;;;;;;;22.98;47.50;98303.09;5049864;28;20613;-61
2021/05/02 11:19:59;;;;;;;4.18;1.10;;;;;;;23.08;47.89;98310.94;5048059;28;20199;-61
2021/05/02 11:22:26;;;;;;;4.05;1.10;;;;;;;23.11;47.52;98307.94;5046639;28;20298;-60
2021/05/02 11:25:00;;;;;;;3.20;1.30;;;;;;;23.11;47.15;98318.59;5044667;28;20203;-61
2021/05/02 11:28:03;;;;;;;2.72;0.88;;;;;;;23.14;47.72;98323.59;5050497;28;20353;-60
2021/05/02 11:30:31;;;;;;;7.35;1.00;;;;;;;23.14;48.25;98339.59;5041178;28;20227;-59
2021/05/02 11:32:58;;;;;;;5.30;1.38;;;;;;;23.21;47.97;98351.25;5047374;28;20250;-53
2021/05/02 11:38:43;;;;;;;3.67;1.10;;;;;;;23.24;47.67;98364.25;5046760;28;20204;-61
2021/05/02 11:41:11;;;;;;;1.65;0.77;;;;;;;23.25;48.31;98373.94;5047638;28;20294;-61
2021/05/02 11:43:40;;;;;;;9.75;1.50;;;;;;;23.19;46.78;98368.44;5043738;28;20202;-62